createdAt,value
2023-02-03T00:00:36.168Z,98.83
2023-02-03T00:03:05.060Z,98.51
2023-02-03T00:05:37.016Z,99.78
2023-02-03T00:08:06.716Z,98.49
2023-02-03T00:10:36.479Z,97.75
2023-02-03T00:13:07.285Z,98.38
2023-02-03T00:15:36.061Z,98.00
2023-02-03T00:18:04.696Z,98.15
2023-02-03T00:20:33.977Z,98.57
2023-02-03T00:23:06.299Z,97.74
2023-02-03T00:25:34.955Z,98.41
2023-02-03T00:28:04.007Z,97.19
2023-02-03T00:30:35.770Z,97.78
2023-02-03T00:33:04.676Z,97.86
2023-02-03T00:35:33.163Z,97.47
2023-02-03T00:38:01.766Z,97.05
2023-02-03T00:40:30.848Z,97.50
2023-02-03T00:42:59.350Z,96.66
2023-02-03T00:45:27.962Z,97.50
2023-02-03T00:47:57.854Z,98.08
2023-02-03T00:50:27.426Z,96.73
2023-02-03T00:52:56.005Z,95.88
2023-02-03T00:55:24.493Z,96.06
2023-02-03T00:57:53.057Z,95.58
2023-02-03T01:00:22.440Z,95.41
2023-02-03T01:02:50.855Z,94.95
2023-02-03T01:05:20.658Z,94.43
2023-02-03T01:07:49.077Z,94.30
2023-02-03T01:10:18.181Z,93.70
2023-02-03T01:12:46.803Z,93.61
2023-02-03T01:15:15.224Z,93.57
2023-02-03T01:17:43.671Z,92.57
2023-02-03T01:20:13.943Z,92.89
2023-02-03T01:22:43.920Z,92.62
2023-02-03T01:25:12.579Z,92.62
2023-02-03T01:27:41.124Z,92.05
2023-02-03T01:30:10.924Z,92.02
2023-02-03T01:32:39.488Z,91.83
2023-02-03T01:35:09.733Z,92.12
2023-02-03T01:37:38.274Z,91.51
2023-02-03T01:40:10.005Z,91.95
2023-02-03T01:42:38.560Z,91.88
2023-02-03T01:45:07.931Z,91.86
2023-02-03T01:47:44.775Z,91.96
2023-02-03T01:50:17.605Z,91.93
2023-02-03T01:52:50.501Z,91.99
2023-02-03T01:55:23.752Z,91.80
2023-02-03T01:57:55.592Z,91.85
2023-02-03T02:00:24.983Z,91.90
2023-02-03T02:02:54.744Z,91.81
2023-02-03T02:05:29.008Z,91.63
2023-02-03T02:07:59.449Z,91.66
2023-02-03T02:10:30.785Z,92.14
2023-02-03T02:13:01.484Z,91.84
2023-02-03T02:15:36.691Z,91.27
2023-02-03T02:18:20.315Z,91.19
2023-02-03T02:21:14.437Z,90.77
2023-02-03T02:24:10.330Z,90.92
2023-02-03T02:26:55.697Z,91.06
2023-02-03T02:29:45.186Z,91.03
2023-02-03T02:32:22.764Z,90.86
2023-02-03T02:35:03.848Z,90.76
2023-02-03T02:37:45.453Z,90.95
2023-02-03T02:40:25.295Z,90.87
2023-02-03T02:43:03.978Z,91.10
2023-02-03T02:45:38.828Z,91.18
2023-02-03T02:48:16.479Z,91.22
2023-02-03T02:50:49.370Z,90.80
2023-02-03T02:53:21.351Z,91.02
2023-02-03T02:55:50.310Z,90.58
2023-02-03T02:58:21.203Z,91.13
2023-02-03T03:00:49.950Z,90.96
2023-02-03T03:03:25.185Z,90.72
2023-02-03T03:05:57.317Z,90.57
2023-02-03T03:08:34.194Z,90.50
2023-02-03T03:11:03.803Z,90.45
2023-02-03T03:13:39.317Z,90.37
2023-02-03T03:16:10.515Z,90.36
2023-02-03T03:18:44.448Z,90.05
2023-02-03T03:21:17.336Z,90.27
2023-02-03T03:23:49.503Z,90.15
2023-02-03T03:26:27.840Z,89.54
2023-02-03T03:29:05.009Z,90.10
2023-02-03T03:31:33.913Z,90.22
2023-02-03T03:34:04.091Z,89.92
2023-02-03T03:36:39.225Z,89.75
2023-02-03T03:39:16.754Z,89.52
2023-02-03T03:41:57.451Z,89.31
2023-02-03T03:44:31.267Z,89.18
2023-02-03T03:47:07.978Z,89.36
2023-02-03T03:49:42.225Z,89.09
2023-02-03T03:52:15.789Z,88.81
2023-02-03T03:54:47.075Z,88.83
2023-02-03T03:57:20.304Z,88.14
2023-02-03T03:59:51.749Z,88.48
2023-02-03T04:02:22.252Z,88.48
2023-02-03T04:04:52.897Z,88.47
2023-02-03T04:07:21.305Z,88.31
2023-02-03T04:09:51.043Z,88.57
2023-02-03T04:12:24.560Z,88.03
2023-02-03T04:14:53.184Z,88.15
2023-02-03T04:17:21.869Z,88.00
2023-02-03T04:19:51.793Z,87.83
2023-02-03T04:22:20.315Z,87.67
2023-02-03T04:24:48.709Z,88.22
2023-02-03T04:27:17.332Z,88.14
2023-02-03T04:29:47.646Z,87.64
2023-02-03T04:32:16.030Z,87.36
2023-02-03T04:34:44.501Z,87.76
2023-02-03T04:37:14.559Z,87.63
2023-02-03T04:39:43.187Z,87.40
2023-02-03T04:42:11.621Z,87.85
2023-02-03T04:44:40.312Z,87.59
2023-02-03T04:47:08.764Z,87.54
2023-02-03T04:49:37.163Z,87.68
2023-02-03T04:52:07.302Z,87.58
2023-02-03T04:54:37.591Z,87.91
2023-02-03T04:57:06.451Z,87.62
2023-02-03T04:59:35.102Z,87.83
2023-02-03T05:02:04.434Z,87.55
2023-02-03T05:04:33.351Z,87.59
2023-02-03T05:07:01.935Z,86.92
2023-02-03T05:09:30.526Z,87.50
2023-02-03T05:12:00.381Z,87.65
2023-02-03T05:14:28.810Z,87.54
2023-02-03T05:16:57.463Z,87.68
2023-02-03T05:19:25.959Z,87.16
2023-02-03T05:21:54.691Z,87.40
2023-02-03T05:24:23.141Z,87.31
2023-02-03T05:26:52.004Z,87.41
2023-02-03T05:29:21.788Z,87.24
2023-02-03T05:31:50.981Z,87.56
2023-02-03T05:34:19.809Z,87.32
2023-02-03T05:36:49.046Z,87.34
2023-02-03T05:39:17.719Z,86.77
2023-02-03T05:41:55.899Z,87.30
2023-02-03T05:44:29.157Z,86.92
2023-02-03T05:46:59.931Z,87.20
2023-02-03T05:49:28.372Z,86.49
2023-02-03T05:51:57.141Z,86.52
2023-02-03T05:54:25.604Z,86.67
2023-02-03T05:56:54.440Z,86.21
2023-02-03T05:59:23.226Z,86.41
2023-02-03T06:01:53.118Z,86.90
2023-02-03T06:04:21.670Z,86.30
2023-02-03T06:06:50.118Z,86.36
2023-02-03T06:09:18.566Z,86.13
2023-02-03T06:11:47.166Z,86.08
2023-02-03T06:14:15.569Z,86.10
2023-02-03T06:16:44.060Z,86.33
2023-02-03T06:19:16.187Z,86.21
2023-02-03T06:21:45.038Z,85.97
2023-02-03T06:24:13.738Z,85.96
2023-02-03T06:26:42.134Z,86.02
2023-02-03T06:29:10.664Z,86.19
2023-02-03T06:31:39.179Z,86.18
2023-02-03T06:34:07.893Z,85.81
2023-02-03T06:36:37.830Z,86.00
2023-02-03T06:39:06.639Z,86.52
2023-02-03T06:41:35.250Z,86.48
2023-02-03T06:44:04.068Z,86.31
2023-02-03T06:46:33.879Z,85.99
2023-02-03T06:49:02.739Z,86.58
2023-02-03T06:51:31.486Z,86.41
2023-02-03T06:54:02.874Z,87.14
2023-02-03T06:56:32.347Z,87.17
2023-02-03T06:59:01.565Z,87.33
2023-02-03T07:01:30.944Z,86.94
2023-02-03T07:03:59.938Z,86.57
2023-02-03T07:06:32.279Z,86.54
2023-02-03T07:09:04.834Z,86.30
2023-02-03T07:11:33.884Z,87.31
2023-02-03T07:14:02.455Z,87.14
2023-02-03T07:16:34.136Z,86.91
2023-02-03T07:19:02.694Z,86.78
2023-02-03T07:21:31.266Z,86.71
2023-02-03T07:24:00.201Z,86.58
2023-02-03T07:26:31.043Z,86.51
2023-02-03T07:29:00.884Z,86.36
2023-02-03T07:31:29.547Z,85.85
2023-02-03T07:33:58.459Z,85.89
2023-02-03T07:36:28.037Z,85.82
2023-02-03T07:38:56.563Z,85.70
2023-02-03T07:41:25.840Z,85.91
2023-02-03T07:43:55.657Z,85.77
2023-02-03T07:46:24.221Z,85.57
2023-02-03T07:48:52.701Z,85.30
2023-02-03T07:51:21.333Z,85.33
2023-02-03T07:53:50.148Z,85.29
2023-02-03T07:56:18.842Z,85.24
2023-02-03T07:58:47.379Z,85.07
2023-02-03T08:01:17.934Z,85.42
2023-02-03T08:03:46.403Z,85.19
2023-02-03T08:06:15.237Z,85.43
2023-02-03T08:08:43.942Z,85.52
2023-02-03T08:11:12.621Z,85.32
2023-02-03T08:13:41.161Z,85.22
2023-02-03T08:16:09.869Z,85.33
2023-02-03T08:18:39.845Z,85.30
2023-02-03T08:21:08.276Z,85.10
2023-02-03T08:23:36.887Z,85.05
2023-02-03T08:26:06.009Z,84.98
2023-02-03T08:28:34.545Z,84.90
2023-02-03T08:31:03.155Z,84.72
2023-02-03T08:33:32.607Z,84.95
2023-02-03T08:36:05.797Z,84.70
2023-02-03T08:38:34.561Z,84.72
2023-02-03T08:41:03.031Z,84.76
2023-02-03T08:43:31.500Z,84.55
2023-02-03T08:46:04.366Z,84.00
2023-02-03T08:48:33.093Z,84.59
2023-02-03T08:51:03.241Z,84.23
2023-02-03T08:53:31.936Z,84.11
2023-02-03T08:56:00.357Z,84.41
2023-02-03T08:58:28.995Z,83.99
2023-02-03T09:01:07.686Z,84.42
2023-02-03T09:03:36.571Z,84.13
2023-02-03T09:06:09.228Z,84.19
2023-02-03T09:08:37.900Z,84.18
2023-02-03T09:11:10.577Z,83.79
2023-02-03T09:13:39.413Z,84.27
2023-02-03T09:16:08.739Z,84.29
2023-02-03T09:18:37.316Z,84.33
2023-02-03T09:21:09.207Z,84.10
2023-02-03T09:23:38.452Z,84.27
2023-02-03T09:26:08.893Z,84.28
2023-02-03T09:28:37.899Z,84.41
2023-02-03T09:31:07.996Z,84.22
2023-02-03T09:33:37.248Z,84.42
2023-02-03T09:36:08.625Z,84.74
2023-02-03T09:38:37.236Z,84.64
2023-02-03T09:41:19.483Z,84.73
2023-02-03T09:43:54.493Z,85.47
2023-02-03T09:46:26.233Z,85.05
2023-02-03T09:48:59.066Z,85.24
2023-02-03T09:51:32.852Z,84.76
2023-02-03T09:54:07.057Z,84.35
2023-02-03T09:56:37.742Z,84.51
2023-02-03T09:59:07.396Z,84.47
2023-02-03T10:01:45.024Z,84.30
2023-02-03T10:04:27.831Z,84.95
2023-02-03T10:07:07.952Z,84.83
2023-02-03T10:09:50.173Z,84.89
2023-02-03T10:12:57.894Z,84.79
2023-02-03T10:15:44.925Z,84.39
2023-02-03T10:18:16.676Z,84.88
2023-02-03T10:20:48.803Z,84.83
2023-02-03T10:23:23.509Z,84.58
2023-02-03T10:25:57.346Z,85.03
2023-02-03T10:28:38.910Z,85.41
2023-02-03T10:31:16.845Z,85.51
2023-02-03T10:33:46.107Z,85.33
2023-02-03T10:36:21.059Z,85.56
2023-02-03T10:39:02.147Z,85.60
2023-02-03T10:41:32.355Z,85.56
2023-02-03T10:44:05.100Z,85.53
2023-02-03T10:46:37.054Z,85.21
2023-02-03T10:49:06.178Z,85.43
2023-02-03T10:51:39.658Z,85.90
2023-02-03T10:54:28.198Z,85.73
2023-02-03T10:57:07.190Z,85.54
2023-02-03T10:59:38.078Z,85.66
2023-02-03T11:02:11.938Z,85.65
2023-02-03T11:04:40.709Z,85.68
2023-02-03T11:07:25.432Z,85.94
2023-02-03T11:09:55.652Z,85.68
2023-02-03T11:12:24.056Z,85.61
2023-02-03T11:14:54.422Z,86.38
2023-02-03T11:17:32.962Z,86.25
2023-02-03T11:20:13.992Z,85.66
2023-02-03T11:22:44.247Z,85.49
2023-02-03T11:25:29.721Z,86.29
2023-02-03T11:28:06.890Z,87.05
2023-02-03T11:30:35.676Z,87.12
2023-02-03T11:33:04.810Z,87.30
2023-02-03T11:35:34.229Z,87.29
2023-02-03T11:38:03.130Z,87.82
2023-02-03T11:40:38.385Z,88.13
2023-02-03T11:43:16.712Z,88.46
2023-02-03T11:45:51.387Z,87.82
2023-02-03T11:48:28.745Z,87.70
2023-02-03T11:51:12.346Z,87.72
2023-02-03T11:54:22.052Z,87.38
2023-02-03T11:57:13.357Z,87.06
2023-02-03T11:59:53.139Z,86.86
2023-02-03T12:02:44.903Z,86.70
2023-02-03T12:05:29.607Z,86.90
2023-02-03T12:08:10.830Z,86.50
2023-02-03T12:10:49.936Z,86.51
2023-02-03T12:13:38.021Z,86.60
2023-02-03T12:16:23.942Z,86.30
2023-02-03T12:19:06.279Z,86.18
2023-02-03T12:21:45.387Z,86.00
2023-02-03T12:24:30.303Z,86.11
2023-02-03T12:27:13.125Z,85.54
2023-02-03T12:29:46.607Z,85.48
2023-02-03T12:32:24.935Z,85.82
2023-02-03T12:34:58.138Z,85.08
2023-02-03T12:37:30.095Z,84.84
2023-02-03T12:40:02.762Z,84.91
2023-02-03T12:42:38.351Z,83.82
2023-02-03T12:45:14.778Z,83.77
2023-02-03T12:47:46.787Z,84.17
2023-02-03T12:50:21.709Z,83.97
2023-02-03T12:52:56.830Z,83.89
2023-02-03T12:55:35.799Z,83.80
2023-02-03T12:58:07.224Z,83.77
2023-02-03T13:00:43.919Z,83.87
2023-02-03T13:03:19.133Z,84.07
2023-02-03T13:05:55.234Z,84.61
2023-02-03T13:08:30.427Z,85.46
2023-02-03T13:11:12.942Z,85.88
2023-02-03T13:13:49.248Z,86.49
2023-02-03T13:16:23.106Z,87.79
2023-02-03T13:18:57.648Z,89.62
2023-02-03T13:21:26.413Z,89.87
2023-02-03T13:23:55.064Z,91.31
2023-02-03T13:27:02.935Z,91.49
2023-02-03T13:29:50.507Z,92.75
2023-02-03T13:32:36.618Z,92.99
2023-02-03T13:35:32.170Z,92.97
2023-02-03T13:38:22.307Z,93.53
2023-02-03T13:40:59.549Z,93.09
2023-02-03T13:43:38.553Z,94.03
2023-02-03T13:46:18.687Z,93.92
2023-02-03T13:48:49.080Z,93.64
2023-02-03T13:51:21.509Z,94.11
2023-02-03T13:53:53.505Z,93.44
2023-02-03T13:56:24.254Z,93.88
2023-02-03T13:59:06.078Z,94.54
2023-02-03T14:01:38.511Z,93.58
2023-02-03T14:04:10.577Z,93.99
2023-02-03T14:06:58.989Z,94.86
2023-02-03T14:09:41.157Z,93.46
2023-02-03T14:12:37.044Z,92.23
2023-02-03T14:15:22.805Z,91.48
2023-02-03T14:18:07.871Z,90.86
2023-02-03T14:20:44.218Z,90.31
2023-02-03T14:23:35.367Z,90.32
2023-02-03T14:26:04.594Z,90.06
2023-02-03T14:28:41.291Z,90.67
2023-02-03T14:31:25.542Z,89.73
2023-02-03T14:34:05.762Z,89.66
2023-02-03T14:36:46.763Z,89.42
2023-02-03T14:39:55.292Z,89.63
2023-02-03T14:42:40.910Z,89.81
2023-02-03T14:45:24.188Z,89.42
2023-02-03T14:48:07.797Z,89.45
2023-02-03T14:50:53.016Z,89.08
2023-02-03T14:53:52.027Z,88.84
2023-02-03T14:56:54.577Z,88.32
2023-02-03T14:59:27.572Z,87.91
2023-02-03T15:02:39.700Z,88.02
2023-02-03T15:05:39.304Z,88.45
2023-02-03T15:08:43.160Z,88.90
2023-02-03T15:11:33.364Z,88.35
2023-02-03T15:14:22.979Z,88.08
2023-02-03T15:17:02.053Z,88.64
2023-02-03T15:19:35.057Z,88.57
2023-02-03T15:22:19.425Z,88.69
2023-02-03T15:25:03.285Z,88.74
2023-02-03T15:27:34.760Z,88.42
2023-02-03T15:30:16.908Z,87.84
2023-02-03T15:32:50.278Z,87.21
2023-02-03T15:35:21.020Z,86.76
2023-02-03T15:37:54.829Z,86.50
2023-02-03T15:40:24.748Z,86.40
2023-02-03T15:43:03.066Z,85.77
2023-02-03T15:45:35.747Z,85.20
2023-02-03T15:48:09.491Z,85.40
2023-02-03T15:50:43.788Z,84.75
2023-02-03T15:53:20.187Z,84.63
2023-02-03T15:55:51.568Z,84.53
2023-02-03T15:58:24.672Z,84.12
2023-02-03T16:00:56.029Z,84.04
2023-02-03T16:03:34.586Z,84.58
2023-02-03T16:06:09.586Z,84.51
2023-02-03T16:08:43.326Z,84.84
2023-02-03T16:11:30.133Z,84.91
2023-02-03T16:14:02.218Z,85.24
2023-02-03T16:16:36.194Z,85.16
2023-02-03T16:19:07.794Z,85.16
2023-02-03T16:21:38.128Z,85.94
2023-02-03T16:24:07.412Z,85.77
2023-02-03T16:26:38.417Z,85.43
2023-02-03T16:29:33.571Z,85.50
2023-02-03T16:32:19.794Z,84.96
2023-02-03T16:35:06.063Z,84.72
2023-02-03T16:38:01.360Z,84.72
2023-02-03T16:40:47.991Z,84.70
2023-02-03T16:43:35.197Z,84.41
2023-02-03T16:46:30.045Z,84.73
2023-02-03T16:49:16.138Z,84.63
2023-02-03T16:51:45.099Z,85.23
2023-02-03T16:54:15.219Z,85.07
2023-02-03T16:56:43.922Z,85.44
2023-02-03T16:59:12.501Z,85.17
2023-02-03T17:01:42.297Z,85.01
2023-02-03T17:04:11.867Z,85.07
2023-02-03T17:06:40.873Z,84.41
2023-02-03T17:09:09.475Z,84.99
2023-02-03T17:11:37.992Z,84.81
2023-02-03T17:14:06.453Z,85.23
2023-02-03T17:16:35.115Z,85.01
2023-02-03T17:19:05.054Z,84.93
2023-02-03T17:21:33.462Z,84.90
2023-02-03T17:24:02.019Z,84.78
2023-02-03T17:26:30.606Z,84.76
2023-02-03T17:29:03.239Z,85.55
2023-02-03T17:31:33.102Z,85.13
2023-02-03T17:34:01.577Z,84.49
2023-02-03T17:36:31.451Z,84.02
2023-02-03T17:55:33.541Z,83.40
2023-02-03T17:58:02.360Z,83.27
2023-02-03T18:00:31.026Z,83.65
2023-02-03T18:02:59.745Z,83.59
2023-02-03T18:05:28.868Z,83.20
2023-02-03T18:08:03.122Z,82.91
2023-02-03T18:10:37.953Z,81.86
2023-02-03T18:13:06.391Z,81.73
2023-02-03T18:15:37.715Z,81.38
2023-02-03T18:18:06.423Z,81.23
2023-02-03T18:20:35.039Z,81.61
2023-02-03T18:23:04.935Z,81.49
2023-02-03T18:25:36.219Z,82.59
2023-02-03T18:28:05.271Z,82.16
2023-02-03T18:30:33.976Z,82.24
2023-02-03T18:33:03.724Z,82.21
2023-02-03T18:35:34.037Z,82.95
2023-02-03T18:38:02.510Z,83.50
2023-02-03T18:40:32.958Z,84.01
2023-02-03T18:43:02.279Z,85.20
2023-02-03T18:45:34.331Z,85.36
2023-02-03T18:48:02.996Z,85.80
2023-02-03T18:50:32.120Z,86.35
2023-02-03T18:53:01.729Z,87.11
2023-02-03T18:55:30.288Z,87.95
2023-02-03T18:58:00.327Z,88.10
2023-02-03T19:00:29.442Z,89.19
2023-02-03T19:02:58.141Z,89.49
2023-02-03T19:05:26.672Z,90.34
2023-02-03T19:07:55.166Z,89.98
2023-02-03T19:10:23.624Z,89.85
2023-02-03T19:12:52.518Z,89.47
2023-02-03T19:15:22.384Z,90.14
2023-02-03T19:17:50.864Z,89.54
2023-02-03T19:20:19.839Z,89.90
2023-02-03T19:22:48.448Z,89.26
2023-02-03T19:25:17.565Z,88.85
2023-02-03T19:27:46.117Z,88.67
2023-02-03T19:30:14.870Z,88.88
2023-02-03T19:32:44.822Z,88.40
2023-02-03T19:35:15.349Z,88.79
2023-02-03T19:37:43.970Z,88.38
2023-02-03T19:40:16.009Z,89.18
2023-02-03T19:42:44.692Z,89.37
2023-02-03T19:45:13.400Z,89.21
2023-02-03T19:47:41.906Z,88.76
2023-02-03T19:50:12.981Z,88.62
2023-02-03T19:52:41.684Z,88.19
2023-02-03T19:55:10.194Z,88.19
2023-02-03T19:57:38.713Z,88.40
2023-02-03T20:00:08.451Z,87.64
2023-02-03T20:02:38.653Z,87.38
2023-02-03T20:05:07.990Z,87.47
2023-02-03T20:07:38.258Z,87.35
2023-02-03T20:10:07.346Z,86.40
2023-02-03T20:12:35.961Z,86.88
2023-02-03T20:15:04.901Z,86.18
2023-02-03T20:17:33.685Z,86.36
2023-02-03T20:20:02.122Z,85.94
2023-02-03T20:22:30.628Z,85.68
2023-02-03T20:25:00.727Z,85.14
2023-02-03T20:27:29.169Z,84.54
2023-02-03T20:29:57.777Z,83.98
2023-02-03T20:32:26.247Z,83.49
2023-02-03T20:34:54.708Z,83.16
2023-02-03T20:37:23.385Z,82.30
2023-02-03T20:39:51.860Z,81.72
2023-02-03T20:42:21.957Z,81.46
2023-02-03T20:44:50.662Z,81.19
2023-02-03T20:47:21.295Z,81.23
2023-02-03T20:49:50.713Z,80.89
2023-02-03T20:52:21.776Z,81.26
2023-02-03T20:54:50.456Z,80.28
2023-02-03T20:57:20.385Z,80.33
2023-02-03T20:59:50.253Z,80.39
2023-02-03T21:02:22.874Z,80.14
2023-02-03T21:04:59.860Z,79.92
2023-02-03T21:07:30.800Z,79.98
2023-02-03T21:10:00.651Z,79.47
2023-02-03T21:12:29.566Z,79.40
2023-02-03T21:14:59.434Z,79.82
2023-02-03T21:17:28.599Z,79.24
2023-02-03T21:19:57.312Z,79.45
2023-02-03T21:22:30.220Z,79.03
2023-02-03T21:25:00.532Z,78.63
2023-02-03T21:27:30.803Z,78.31
2023-02-03T21:30:02.513Z,78.69
2023-02-03T21:32:37.869Z,78.86
2023-02-03T21:35:24.086Z,78.32
2023-02-03T21:37:57.022Z,78.56
2023-02-03T21:40:28.217Z,78.09
2023-02-03T21:42:57.888Z,78.34
2023-02-03T21:45:36.647Z,78.84
2023-02-03T21:48:27.133Z,78.38
2023-02-03T21:50:56.937Z,78.25
2023-02-03T21:53:28.584Z,78.14
2023-02-03T21:55:57.246Z,78.45
2023-02-03T21:58:28.979Z,78.42
2023-02-03T22:01:00.554Z,78.46
2023-02-03T22:03:31.136Z,78.54
2023-02-03T22:06:16.834Z,78.05
2023-02-03T22:08:46.996Z,78.65
2023-02-03T22:11:16.734Z,79.42
2023-02-03T22:13:45.579Z,79.69
2023-02-03T22:16:17.169Z,79.48
2023-02-03T22:18:46.606Z,80.46
2023-02-03T22:21:16.004Z,80.78
2023-02-03T22:23:45.194Z,80.96
2023-02-03T22:26:14.339Z,80.62
2023-02-03T22:28:43.506Z,80.83
2023-02-03T22:31:13.617Z,81.31
2023-02-03T22:33:44.162Z,80.36
2023-02-03T22:36:14.452Z,80.86
2023-02-03T22:38:43.804Z,80.97
2023-02-03T22:41:13.041Z,81.25
2023-02-03T22:43:41.897Z,81.45
2023-02-03T22:46:10.349Z,81.63
2023-02-03T22:48:38.835Z,81.99
2023-02-03T22:51:08.955Z,82.37
2023-02-03T22:53:39.483Z,81.86
2023-02-03T22:56:08.322Z,82.08
2023-02-03T22:58:36.757Z,82.72
2023-02-03T23:01:05.391Z,82.96
2023-02-03T23:03:34.078Z,81.84
2023-02-03T23:06:02.880Z,82.65
2023-02-03T23:08:32.732Z,82.52
2023-02-03T23:11:01.177Z,82.07
2023-02-03T23:13:29.620Z,82.88
2023-02-03T23:15:58.265Z,83.16
2023-02-03T23:18:26.717Z,82.88
2023-02-03T23:20:55.167Z,83.39
2023-02-03T23:23:23.777Z,83.70
2023-02-03T23:25:53.528Z,84.88
2023-02-03T23:28:21.944Z,85.10
2023-02-03T23:30:50.562Z,85.00
2023-02-03T23:33:19.075Z,85.05
2023-02-03T23:35:46.529Z,85.96
2023-02-03T23:38:16.032Z,86.26
2023-02-03T23:40:45.294Z,86.44
2023-02-03T23:43:15.854Z,87.01
2023-02-03T23:45:44.296Z,88.08
2023-02-03T23:48:13.194Z,87.75
2023-02-03T23:50:41.682Z,87.90
2023-02-03T23:53:10.650Z,87.85
2023-02-03T23:55:39.244Z,87.97
2023-02-03T23:58:07.653Z,87.61
